Time;durP1;ratioP1;P1;durP2;ratioP2;P2;SDS_P1;SDS_P2;PMS_P1;PMS_P2;Temp;Humidity;BMP_temperature;BMP_pressure;BME280_temperature;BME280_humidity;BME280_pressure;Samples;Min_cycle;Max_cycle;Signal;HPM_P1;HPM_P2
2024/01/09 00:01:52;;;;;;;155.50;59.30;;;;;;;-10.53;74.36;103511.23;106368;1258;139115;-85
2024/01/09 00:04:19;;;;;;;139.30;55.30;;;;;;;-10.53;74.41;103510.45;106515;1258;66306;-87
2024/01/09 00:06:46;;;;;;;133.30;50.80;;;;;;;-10.53;74.47;103508.14;106698;1254;139659;-86
2024/01/09 00:09:12;;;;;;;125.60;50.50;;;;;;;-10.52;74.13;103506.30;106790;1254;60469;-86
2024/01/09 00:11:39;;;;;;;137.20;55.80;;;;;;;-10.51;74.51;103497.98;106760;1254;60433;-86
2024/01/09 00:14:06;;;;;;;115.20;52.00;;;;;;;-10.50;74.26;103501.58;106665;1254;138926;-86
2024/01/09 00:16:32;;;;;;;102.80;42.40;;;;;;;-10.49;74.41;103499.04;106474;1254;66299;-86
2024/01/09 00:18:59;;;;;;;111.20;46.70;;;;;;;-10.47;74.41;103494.77;106551;1259;139039;-85
2024/01/09 00:21:26;;;;;;;113.20;43.80;;;;;;;-10.47;74.58;103493.98;106551;1254;59939;-85
2024/01/09 00:23:52;;;;;;;102.30;40.30;;;;;;;-10.46;74.45;103497.88;106837;1254;59175;-86
2024/01/09 00:26:20;;;;;;;107.10;42.40;;;;;;;-10.46;74.40;103505.48;106402;1254;139231;-85
2024/01/09 00:28:46;;;;;;;92.10;39.70;;;;;;;-10.44;74.33;103499.60;106456;1260;66320;-85
2024/01/09 00:31:13;;;;;;;94.80;42.30;;;;;;;-10.43;74.47;103494.19;106475;1260;138991;-85
2024/01/09 00:33:40;;;;;;;98.60;40.60;;;;;;;-10.40;74.30;103493.91;106729;1256;60582;-86
2024/01/09 00:36:07;;;;;;;96.70;43.30;;;;;;;-10.39;74.30;103488.12;106651;1254;60595;-85
2024/01/09 00:38:35;;;;;;;99.10;40.20;;;;;;;-10.37;74.22;103487.66;106662;1254;139316;-86
2024/01/09 00:41:01;;;;;;;98.70;39.60;;;;;;;-10.35;74.11;103491.31;106762;1254;66218;-86
2024/01/09 00:43:28;;;;;;;97.70;41.60;;;;;;;-10.36;74.03;103489.52;106786;1256;139199;-85
2024/01/09 00:45:55;;;;;;;100.70;40.80;;;;;;;-10.36;74.02;103485.58;106828;1254;60610;-86
2024/01/09 00:48:22;;;;;;;103.50;43.20;;;;;;;-10.34;74.31;103488.48;106565;1254;60495;-87
2024/01/09 00:50:48;;;;;;;92.20;40.20;;;;;;;-10.34;74.02;103485.17;106575;1253;139525;-86
2024/01/09 00:53:15;;;;;;;102.80;41.20;;;;;;;-10.34;74.19;103484.33;106719;1254;65044;-87
2024/01/09 00:55:42;;;;;;;99.00;41.60;;;;;;;-10.34;74.13;103484.02;106605;1256;139897;-87
2024/01/09 00:58:08;;;;;;;95.50;39.50;;;;;;;-10.35;73.90;103478.86;106608;1254;60549;-87
2024/01/09 01:00:35;;;;;;;100.40;41.80;;;;;;;-10.37;74.07;103474.70;106536;1254;59327;-86
2024/01/09 01:03:02;;;;;;;97.40;39.10;;;;;;;-10.38;74.02;103475.91;106729;1254;138783;-86
2024/01/09 01:05:29;;;;;;;102.30;40.60;;;;;;;-10.37;74.11;103477.24;106768;1259;66398;-86
2024/01/09 01:07:55;;;;;;;95.00;39.70;;;;;;;-10.38;74.09;103471.14;106739;1254;139062;-86
2024/01/09 01:10:22;;;;;;;97.40;39.70;;;;;;;-10.38;73.99;103470.49;106666;1254;60540;-85
2024/01/09 01:12:49;;;;;;;104.30;42.70;;;;;;;-10.38;74.18;103462.19;106657;1257;139193;-86
2024/01/09 01:15:16;;;;;;;102.40;43.40;;;;;;;-10.40;73.83;103458.82;106789;1261;75635;-84
2024/01/09 01:17:43;;;;;;;96.10;39.90;;;;;;;-10.42;73.89;103454.05;107295;1254;66308;-85
2024/01/09 01:20:10;;;;;;;100.00;39.80;;;;;;;-10.43;73.90;103452.84;107196;1254;138813;-85
2024/01/09 01:22:37;;;;;;;94.30;35.70;;;;;;;-10.42;74.19;103451.41;107652;1254;60358;-84
2024/01/09 01:25:04;;;;;;;99.40;36.40;;;;;;;-10.42;74.01;103448.27;107862;1256;137723;-86
2024/01/09 01:27:34;;;;;;;92.30;37.10;;;;;;;-10.41;74.02;103446.70;108873;1254;72490;-86
2024/01/09 01:30:00;;;;;;;89.10;35.30;;;;;;;-10.40;73.95;103447.39;108890;1254;65017;-86
2024/01/09 01:32:27;;;;;;;93.80;37.00;;;;;;;-10.39;74.26;103448.27;108648;1254;138231;-86
2024/01/09 01:34:54;;;;;;;76.20;34.00;;;;;;;-10.38;73.86;103449.20;108736;1254;58776;-86
2024/01/09 01:37:20;;;;;;;82.50;34.40;;;;;;;-10.36;74.19;103447.06;108514;1254;137884;-86
2024/01/09 01:39:47;;;;;;;78.10;32.20;;;;;;;-10.33;74.49;103444.20;107101;1260;72643;-87
2024/01/09 01:42:14;;;;;;;76.40;33.10;;;;;;;-10.28;74.35;103438.38;106713;1259;66469;-87
2024/01/09 01:44:40;;;;;;;69.10;29.30;;;;;;;-10.26;74.19;103436.39;106650;1254;138754;-86
2024/01/09 01:47:07;;;;;;;57.70;26.10;;;;;;;-10.23;74.26;103437.82;106672;1257;60449;-86
2024/01/09 01:49:34;;;;;;;63.00;27.80;;;;;;;-10.19;74.56;103435.21;106536;1259;138774;-86
2024/01/09 01:52:00;;;;;;;59.40;27.50;;;;;;;-10.17;74.52;103435.95;106727;1254;72601;-86
2024/01/09 01:54:27;;;;;;;64.60;29.80;;;;;;;-10.14;74.48;103434.56;106692;1254;66946;-87
2024/01/09 01:56:54;;;;;;;66.10;28.10;;;;;;;-10.15;74.48;103432.96;106528;1258;139476;-86
2024/01/09 01:59:22;;;;;;;69.90;28.10;;;;;;;-10.17;74.48;103438.27;106666;1254;60553;-87
2024/01/09 02:01:48;;;;;;;71.90;31.90;;;;;;;-10.20;74.25;103435.54;106368;1254;138729;-86
2024/01/09 02:04:16;;;;;;;73.60;30.40;;;;;;;-10.21;74.32;103440.78;106708;1254;72567;-86
2024/01/09 02:06:43;;;;;;;71.70;30.20;;;;;;;-10.23;74.59;103439.43;106781;1256;64968;-87
2024/01/09 02:09:10;;;;;;;73.20;29.20;;;;;;;-10.25;74.20;103439.48;106571;1254;72408;-86
2024/01/09 02:11:37;;;;;;;66.60;28.50;;;;;;;-10.28;74.04;103437.87;106510;1254;59576;-86
2024/01/09 02:14:03;;;;;;;75.40;28.90;;;;;;;-10.27;74.28;103436.73;106476;1256;139465;-86
2024/01/09 02:16:30;;;;;;;82.90;30.80;;;;;;;-10.26;74.47;103435.70;106751;1258;73876;-87
2024/01/09 02:18:57;;;;;;;70.90;29.90;;;;;;;-10.26;74.49;103434.20;106631;1256;139066;-87
2024/01/09 02:21:23;;;;;;;69.80;30.00;;;;;;;-10.27;74.07;103433.04;106543;1254;71364;-86
2024/01/09 02:23:50;;;;;;;66.40;28.90;;;;;;;-10.30;74.12;103430.70;106684;1259;60465;-86
2024/01/09 02:26:20;;;;;;;70.30;28.80;;;;;;;-10.34;73.97;103429.42;106685;1254;139258;-86
2024/01/09 02:28:48;;;;;;;93.60;37.20;;;;;;;-10.38;73.91;103424.28;106881;1254;72863;-86
2024/01/09 02:31:15;;;;;;;107.50;38.10;;;;;;;-10.41;73.95;103420.54;106667;1258;138926;-85
2024/01/09 02:33:41;;;;;;;135.70;45.10;;;;;;;-10.44;73.81;103419.38;106661;1254;71426;-87
2024/01/09 02:36:08;;;;;;;136.80;46.00;;;;;;;-10.46;73.86;103416.45;106713;1255;59822;-86
2024/01/09 02:38:35;;;;;;;136.70;51.10;;;;;;;-10.49;74.05;103412.11;106586;1254;139104;-85
2024/01/09 02:41:02;;;;;;;116.00;41.40;;;;;;;-10.47;74.07;103416.33;106697;1259;73961;-84
2024/01/09 02:43:29;;;;;;;104.20;37.60;;;;;;;-10.48;73.94;103414.10;106622;1256;139795;-86
2024/01/09 02:45:55;;;;;;;80.80;31.50;;;;;;;-10.48;74.24;103411.88;106781;1254;71459;-86
2024/01/09 02:48:22;;;;;;;68.70;28.60;;;;;;;-10.44;74.42;103409.48;106830;1257;59598;-85
2024/01/09 02:50:49;;;;;;;72.10;29.20;;;;;;;-10.41;74.45;103401.55;106418;1260;138805;-85
2024/01/09 02:53:15;;;;;;;89.60;30.50;;;;;;;-10.37;74.62;103398.64;106642;1256;73383;-85
2024/01/09 02:55:42;;;;;;;65.10;25.80;;;;;;;-10.31;74.69;103399.50;106684;1257;138993;-84
2024/01/09 02:58:09;;;;;;;48.70;21.10;;;;;;;-10.27;74.63;103402.53;106605;1257;72685;-85
2024/01/09 03:00:36;;;;;;;51.60;21.40;;;;;;;-10.26;74.73;103404.90;106769;1258;60059;-87
2024/01/09 03:03:02;;;;;;;51.80;20.40;;;;;;;-10.26;74.64;103405.64;106706;1257;139476;-87
2024/01/09 03:05:31;;;;;;;44.30;18.80;;;;;;;-10.25;74.80;103403.31;106828;1253;73482;-87
2024/01/09 03:07:57;;;;;;;51.10;21.30;;;;;;;-10.24;74.85;103403.59;106787;1253;138869;-86
2024/01/09 03:10:24;;;;;;;50.90;22.00;;;;;;;-10.24;74.95;103402.06;106828;1254;71369;-86
2024/01/09 03:12:51;;;;;;;55.60;20.80;;;;;;;-10.22;74.86;103403.31;106916;1256;139838;-85
2024/01/09 03:15:18;;;;;;;52.70;20.30;;;;;;;-10.19;74.83;103403.27;106877;1254;60620;-86
2024/01/09 03:17:44;;;;;;;51.60;20.20;;;;;;;-10.16;75.05;103397.85;106950;1259;74689;-86
2024/01/09 03:20:11;;;;;;;46.80;19.70;;;;;;;-10.10;74.82;103402.36;106687;1259;139305;-86
2024/01/09 03:22:38;;;;;;;40.30;17.20;;;;;;;-10.07;75.12;103395.41;106647;1254;72744;-86
2024/01/09 03:25:05;;;;;;;33.80;14.00;;;;;;;-10.02;75.21;103394.48;106663;1256;139082;-85
2024/01/09 03:27:32;;;;;;;30.80;12.70;;;;;;;-9.96;75.44;103393.30;106868;1254;60699;-85
2024/01/09 03:29:58;;;;;;;24.30;11.90;;;;;;;-9.92;75.41;103393.77;106822;1253;73624;-85
2024/01/09 03:32:25;;;;;;;26.30;11.70;;;;;;;-9.89;75.34;103391.40;106752;1254;140270;-86
2024/01/09 03:34:52;;;;;;;30.10;13.40;;;;;;;-9.85;75.66;103392.04;106618;1261;73036;-86
2024/01/09 03:37:19;;;;;;;30.10;13.20;;;;;;;-9.81;75.76;103395.63;106765;1254;138847;-85
2024/01/09 03:39:46;;;;;;;27.60;13.00;;;;;;;-9.77;75.70;103394.74;106761;1254;61002;-86
2024/01/09 03:42:15;;;;;;;23.00;10.20;;;;;;;-9.73;75.97;103394.14;106739;1255;72642;-86
2024/01/09 03:44:42;;;;;;;22.90;11.30;;;;;;;-9.71;75.93;103393.75;106621;1259;138631;-88
2024/01/09 03:47:08;;;;;;;32.30;12.40;;;;;;;-9.71;75.64;103392.27;106522;1254;72912;-86
2024/01/09 03:49:35;;;;;;;43.10;14.60;;;;;;;-9.71;75.57;103390.84;106656;1256;138745;-86
2024/01/09 03:52:03;;;;;;;39.30;14.60;;;;;;;-9.75;75.32;103390.42;106568;1254;61282;-86
2024/01/09 03:54:29;;;;;;;41.60;17.70;;;;;;;-9.75;75.63;103390.16;106797;1258;73591;-85
2024/01/09 03:56:56;;;;;;;45.90;18.10;;;;;;;-9.73;75.33;103391.69;106733;1254;140134;-86
2024/01/09 03:59:23;;;;;;;47.20;18.00;;;;;;;-9.73;75.39;103389.13;106669;1254;73168;-85
2024/01/09 04:01:49;;;;;;;44.10;18.50;;;;;;;-9.74;75.48;103385.28;106650;1254;140168;-85
2024/01/09 04:04:16;;;;;;;51.40;19.60;;;;;;;-9.71;75.53;103378.23;106646;1254;60556;-86
2024/01/09 04:06:43;;;;;;;46.60;16.10;;;;;;;-9.67;75.88;103375.80;106667;1255;74041;-85
2024/01/09 04:09:11;;;;;;;47.20;16.10;;;;;;;-9.60;76.18;103375.50;106646;1254;138466;-85
2024/01/09 04:11:43;;;;;;;43.90;16.20;;;;;;;-9.51;76.38;103371.33;106786;1254;72605;-85
2024/01/09 04:14:10;;;;;;;40.80;14.60;;;;;;;-9.44;76.43;103367.08;106305;1256;139245;-85
2024/01/09 04:16:36;;;;;;;40.30;14.50;;;;;;;-9.37;76.98;103362.05;106382;1262;59827;-84
2024/01/09 04:19:03;;;;;;;36.20;13.90;;;;;;;-9.28;76.82;103364.30;106287;1254;140342;-85
2024/01/09 04:21:30;;;;;;;46.30;15.30;;;;;;;-9.19;77.06;103360.96;106585;1257;65213;-85
2024/01/09 04:23:57;;;;;;;41.80;14.50;;;;;;;-9.11;77.12;103355.95;106694;1254;72673;-85
2024/01/09 04:26:23;;;;;;;37.40;13.30;;;;;;;-9.05;77.38;103354.06;106655;1255;138602;-86
2024/01/09 04:28:50;;;;;;;33.80;12.60;;;;;;;-9.00;77.44;103350.26;106873;1258;60440;-85
2024/01/09 04:31:17;;;;;;;35.30;13.80;;;;;;;-8.97;77.24;103352.66;106725;1254;139525;-85
2024/01/09 04:33:44;;;;;;;37.40;14.80;;;;;;;-8.98;76.78;103351.46;106750;1262;65050;-86
2024/01/09 04:36:16;;;;;;;39.20;16.20;;;;;;;-9.03;76.89;103349.60;107127;1254;70618;-85
2024/01/09 04:38:45;;;;;;;36.10;16.80;;;;;;;-9.05;76.50;103352.57;108667;1254;139085;-85
2024/01/09 04:41:18;;;;;;;30.50;15.40;;;;;;;-9.03;76.38;103351.08;106940;1254;60389;-85
2024/01/09 04:43:45;;;;;;;;;;;;;;;-8.97;76.62;103350.67;106734;1254;139096;-85
2024/01/09 04:46:13;;;;;;;28.80;13.10;;;;;;;-8.89;76.94;103347.29;106755;1255;66487;-85
2024/01/09 04:48:39;;;;;;;26.40;13.50;;;;;;;-8.85;76.94;103347.39;106813;1256;72663;-85
2024/01/09 04:51:06;;;;;;;28.90;13.70;;;;;;;-8.83;76.78;103348.75;106664;1259;138862;-85
2024/01/09 04:53:33;;;;;;;28.70;14.50;;;;;;;-8.83;76.49;103348.80;106902;1254;60444;-85
2024/01/09 04:55:59;;;;;;;31.00;16.00;;;;;;;-8.84;76.48;103343.70;106753;1256;139184;-85
2024/01/09 04:58:26;;;;;;;29.70;15.40;;;;;;;-8.84;76.53;103342.73;106626;1259;65998;-84
2024/01/09 05:00:53;;;;;;;30.90;14.70;;;;;;;-8.83;76.67;103345.98;106575;1254;139483;-85
2024/01/09 05:03:20;;;;;;;33.10;15.50;;;;;;;-8.83;76.82;103347.00;106737;1254;60545;-86
2024/01/09 05:05:47;;;;;;;28.50;14.30;;;;;;;-8.82;76.33;103345.83;106738;1254;60540;-86
2024/01/09 05:08:14;;;;;;;32.00;14.80;;;;;;;-8.79;76.56;103342.14;106659;1254;139043;-87
2024/01/09 05:10:41;;;;;;;27.30;13.80;;;;;;;-8.77;76.50;103341.85;106669;1254;67259;-85
2024/01/09 05:13:07;;;;;;;29.60;14.00;;;;;;;-8.78;76.58;103341.95;106872;1255;138836;-86
2024/01/09 05:15:34;;;;;;;33.70;14.60;;;;;;;-8.77;76.31;103339.52;106685;1260;60890;-84
2024/01/09 05:18:01;;;;;;;36.20;15.90;;;;;;;-8.74;76.50;103338.57;106593;1254;60803;-85
2024/01/09 05:20:28;;;;;;;30.70;16.10;;;;;;;-8.72;76.81;103340.19;106725;1255;139840;-86
2024/01/09 05:22:55;;;;;;;35.30;16.40;;;;;;;-8.69;76.91;103344.02;106937;1254;66317;-86
2024/01/09 05:25:21;;;;;;;34.90;17.20;;;;;;;-8.66;76.75;103338.59;108824;1254;139939;-86
2024/01/09 05:27:49;;;;;;;36.10;16.60;;;;;;;-8.61;77.05;103341.19;108816;1253;59503;-86
2024/01/09 05:30:15;;;;;;;35.50;16.90;;;;;;;-8.57;76.93;103339.26;108731;1253;59355;-87
2024/01/09 05:32:42;;;;;;;33.80;17.20;;;;;;;-8.54;76.82;103336.23;108649;1254;137845;-89
2024/01/09 05:35:09;;;;;;;36.90;15.70;;;;;;;-8.51;76.98;103338.23;108682;1253;64841;-88
2024/01/09 05:37:36;;;;;;;30.60;16.70;;;;;;;-8.45;77.42;103335.20;108343;1254;137618;-86
2024/01/09 05:40:04;;;;;;;156.10;52.90;;;;;;;-8.41;77.35;103340.77;107524;1254;59011;-89
2024/01/09 05:42:30;;;;;;;113.70;39.50;;;;;;;-8.35;77.32;103340.70;106843;1254;58929;-88
2024/01/09 05:44:57;;;;;;;81.10;33.70;;;;;;;-8.29;77.40;103336.73;106682;1257;139122;-86
2024/01/09 05:47:24;;;;;;;57.30;23.90;;;;;;;-8.22;77.76;103337.49;106807;1260;66050;-88
2024/01/09 05:49:51;;;;;;;50.00;23.40;;;;;;;-8.16;77.69;103338.61;106643;1254;140966;-86
2024/01/09 05:52:18;;;;;;;36.30;17.10;;;;;;;-8.11;77.91;103338.45;106834;1259;60422;-89
2024/01/09 05:54:46;;;;;;;37.00;15.40;;;;;;;-8.05;78.05;103341.04;106876;1254;60358;-89
2024/01/09 05:57:16;;;;;;;29.10;14.50;;;;;;;-8.02;77.81;103342.77;106773;1254;75265;-91
2024/01/09 05:59:45;;;;;;;27.90;15.30;;;;;;;-7.99;78.04;103344.73;106505;1259;66678;-86
2024/01/09 06:02:12;;;;;;;30.50;14.70;;;;;;;-7.93;78.15;103352.76;106620;1261;140326;-88
2024/01/09 06:04:39;;;;;;;29.60;16.80;;;;;;;-7.90;78.19;103353.70;106862;1254;58732;-88
2024/01/09 06:07:05;;;;;;;50.30;23.60;;;;;;;-7.87;78.04;103356.45;106825;1254;140944;-88
2024/01/09 06:09:32;;;;;;;73.10;32.80;;;;;;;-7.89;77.92;103358.02;106712;1257;72551;-87
2024/01/09 06:11:59;;;;;;;82.20;34.90;;;;;;;-7.96;77.87;103356.09;106634;1254;66302;-91
2024/01/09 06:14:26;;;;;;;124.80;55.10;;;;;;;-8.07;77.63;103348.60;106557;1256;139441;-90
2024/01/09 06:16:53;;;;;;;97.90;39.90;;;;;;;-8.12;77.41;103345.38;107162;1255;60403;-86
2024/01/09 06:19:20;;;;;;;93.00;38.10;;;;;;;-8.14;77.29;103345.17;106524;1263;140644;-88
2024/01/09 06:21:47;;;;;;;94.10;39.60;;;;;;;-8.18;77.27;103353.07;106913;1254;73939;-88
2024/01/09 06:24:14;;;;;;;109.50;46.80;;;;;;;-8.26;76.99;103355.65;106928;1254;65984;-89
2024/01/09 06:26:40;;;;;;;95.00;39.00;;;;;;;-8.28;77.26;103357.06;106640;1255;139111;-88
2024/01/09 06:29:07;;;;;;;105.70;45.60;;;;;;;-8.27;77.19;103358.41;107166;1254;59211;-88
2024/01/09 06:31:34;;;;;;;102.00;39.10;;;;;;;-8.31;77.39;103351.67;107012;1255;138813;-88
2024/01/09 06:34:01;;;;;;;81.80;33.00;;;;;;;-8.34;77.01;103355.00;106863;1254;72264;-88
2024/01/09 06:36:27;;;;;;;96.10;38.50;;;;;;;-8.37;77.27;103355.77;107012;1254;66666;-89
2024/01/09 06:38:54;;;;;;;87.50;36.80;;;;;;;-8.39;77.20;103357.64;106520;1255;139216;-89
2024/01/09 06:41:21;;;;;;;90.10;36.50;;;;;;;-8.42;77.11;103354.80;107239;1255;60476;-89
2024/01/09 06:43:48;;;;;;;90.40;38.40;;;;;;;-8.44;76.98;103352.42;106870;1254;139182;-88
2024/01/09 06:46:15;;;;;;;79.70;37.20;;;;;;;-8.45;76.88;103356.73;106825;1260;74446;-89
2024/01/09 06:48:41;;;;;;;97.00;40.50;;;;;;;-8.47;76.87;103357.29;106783;1256;66260;-89
2024/01/09 06:51:08;;;;;;;84.30;38.00;;;;;;;-8.50;76.84;103361.34;106731;1254;138438;-89
2024/01/09 06:53:35;;;;;;;98.40;38.60;;;;;;;-8.52;76.48;103355.92;106829;1258;61269;-88
2024/01/09 06:56:01;;;;;;;95.50;39.60;;;;;;;-8.53;76.88;103355.02;106530;1257;138672;-89
2024/01/09 06:58:28;;;;;;;92.30;40.90;;;;;;;-8.55;76.79;103353.97;106776;1254;73840;-89
2024/01/09 07:00:55;;;;;;;104.60;40.50;;;;;;;-8.56;76.63;103354.29;106624;1256;138908;-89
2024/01/09 07:03:24;;;;;;;93.80;41.40;;;;;;;-8.58;76.71;103355.19;106725;1254;73350;-88
2024/01/09 07:05:51;;;;;;;112.80;47.00;;;;;;;-8.61;76.52;103358.89;106680;1254;60563;-89
2024/01/09 07:08:18;;;;;;;103.10;41.50;;;;;;;-8.63;76.38;103362.89;106423;1254;138947;-88
2024/01/09 07:10:44;;;;;;;114.00;48.90;;;;;;;-8.64;76.39;103370.42;106803;1256;73023;-89
2024/01/09 07:13:11;;;;;;;117.10;47.90;;;;;;;-8.64;76.51;103371.27;106666;1258;139603;-88
2024/01/09 07:15:38;;;;;;;122.00;49.50;;;;;;;-8.63;76.62;103371.54;106682;1261;70398;-88
2024/01/09 07:18:05;;;;;;;100.90;45.90;;;;;;;-8.61;76.64;103373.18;106619;1261;60524;-89
2024/01/09 07:20:31;;;;;;;105.30;45.60;;;;;;;-8.59;76.67;103371.04;106440;1260;139233;-89
2024/01/09 07:22:58;;;;;;;103.20;46.50;;;;;;;-8.56;76.76;103372.17;106586;1258;72582;-88
2024/01/09 07:25:25;;;;;;;88.10;42.00;;;;;;;-8.52;76.63;103370.29;106501;1254;139475;-87
2024/01/09 07:27:52;;;;;;;99.10;45.80;;;;;;;-8.50;76.90;103366.74;106785;1261;72771;-87
2024/01/09 07:30:19;;;;;;;100.10;42.60;;;;;;;-8.45;77.01;103365.58;106954;1254;60512;-88
2024/01/09 07:32:46;;;;;;;88.50;40.70;;;;;;;-8.40;77.20;103366.06;106666;1255;139300;-89
2024/01/09 07:35:12;;;;;;;109.40;46.20;;;;;;;-8.36;77.21;103365.45;106640;1256;71575;-89
2024/01/09 07:37:41;;;;;;;112.10;46.30;;;;;;;-8.30;77.11;103365.55;106596;1260;138850;-88
2024/01/09 07:40:09;;;;;;;102.20;45.60;;;;;;;-8.27;76.63;103362.17;106780;1257;71438;-89
2024/01/09 07:42:44;;;;;;;99.90;46.70;;;;;;;-8.23;77.08;103362.88;106704;1254;59160;-89
2024/01/09 07:45:20;;;;;;;99.50;45.10;;;;;;;-8.19;76.67;103362.36;108361;1259;59901;-88
2024/01/09 07:47:47;;;;;;;105.50;47.90;;;;;;;-8.13;76.87;103361.30;106808;1256;73435;-89
2024/01/09 07:50:14;;;;;;;130.00;50.90;;;;;;;-8.08;76.77;103361.20;106657;1259;138845;-89
2024/01/09 07:52:41;;;;;;;127.80;52.90;;;;;;;-8.04;76.44;103356.40;106462;1257;71099;-89
2024/01/09 07:55:08;;;;;;;144.10;59.00;;;;;;;-7.99;76.48;103354.67;106715;1254;139041;-88
2024/01/09 07:57:35;;;;;;;166.10;67.50;;;;;;;-7.93;76.77;103358.73;106695;1256;60439;-88
2024/01/09 08:00:04;;;;;;;191.60;77.50;;;;;;;-7.87;76.40;103360.19;107575;1257;72551;-86
2024/01/09 08:02:45;;;;;;;194.50;79.40;;;;;;;-7.85;76.40;103363.88;107314;1255;138391;-88
2024/01/09 08:05:11;;;;;;;188.00;76.00;;;;;;;-7.80;76.34;103362.38;107013;1255;71126;-88
2024/01/09 08:07:38;;;;;;;192.30;79.90;;;;;;;-7.74;76.37;103364.36;106773;1259;139577;-87
2024/01/09 08:10:38;;;;;;;;;;;;;;;;;;;;;
2024/01/09 08:13:23;;;;;;;179.60;76.10;;;;;;;-7.62;76.63;103357.88;106632;1255;139348;-88
2024/01/09 08:15:50;;;;;;;171.80;78.70;;;;;;;-7.56;76.48;103360.61;106555;1257;177722;-89
2024/01/09 08:18:17;;;;;;;173.60;78.70;;;;;;;-7.48;76.54;103363.14;106758;1254;71402;-87
2024/01/09 08:20:45;;;;;;;169.80;77.90;;;;;;;-7.41;76.66;103366.59;106684;1254;139350;-86
2024/01/09 08:23:12;;;;;;;161.80;75.20;;;;;;;-7.33;76.89;103374.40;106761;1257;60476;-87
2024/01/09 08:25:48;;;;;;;162.90;71.80;;;;;;;-7.27;76.77;103374.36;106666;1254;139152;-87
2024/01/09 08:28:41;;;;;;;160.90;70.10;;;;;;;-7.21;76.64;103370.55;106591;1258;67737;-87
2024/01/09 08:31:08;;;;;;;167.30;72.50;;;;;;;-7.14;76.43;103369.85;106610;1260;139143;-87
2024/01/09 08:33:34;;;;;;;157.80;67.90;;;;;;;-7.01;76.88;103372.89;106760;1255;59148;-87
2024/01/09 08:36:01;;;;;;;143.60;67.30;;;;;;;-6.94;76.89;103377.39;106800;1255;60371;-87
2024/01/09 08:38:33;;;;;;;157.70;68.70;;;;;;;-6.87;76.73;103376.48;106624;1257;139380;-88
2024/01/09 08:41:10;;;;;;;153.10;65.00;;;;;;;-6.78;76.81;103380.32;106523;1256;65329;-88
2024/01/09 08:43:37;;;;;;;200.40;74.30;;;;;;;-6.70;76.77;103380.79;106431;1257;138870;-88
2024/01/09 08:46:04;;;;;;;234.20;83.30;;;;;;;-6.58;76.81;103375.02;106736;1254;58712;-88
2024/01/09 08:48:46;;;;;;;222.00;80.10;;;;;;;-6.49;76.78;103377.42;107975;1256;60499;-88
2024/01/09 08:51:13;;;;;;;205.70;79.00;;;;;;;-6.39;76.91;103374.46;106617;1262;138768;-87
2024/01/09 08:53:40;;;;;;;175.30;77.50;;;;;;;-6.30;76.70;103370.73;106650;1257;66396;-88
2024/01/09 08:56:15;;;;;;;164.30;74.50;;;;;;;-6.23;76.65;103365.70;106702;1257;72581;-89
2024/01/09 08:58:41;;;;;;;134.40;61.20;;;;;;;-6.16;76.81;103368.50;106708;1257;60537;-88
2024/01/09 09:01:10;;;;;;;119.70;54.40;;;;;;;-6.10;76.62;103364.34;106579;1255;138812;-89
2024/01/09 09:03:37;;;;;;;111.20;54.90;;;;;;;-6.03;76.62;103362.95;106591;1262;73944;-87
2024/01/09 09:06:04;;;;;;;128.70;59.00;;;;;;;-5.96;76.52;103364.66;106906;1256;64686;-88
2024/01/09 09:08:31;;;;;;;119.20;58.40;;;;;;;-5.86;76.70;103373.18;106482;1254;138733;-88
2024/01/09 09:10:57;;;;;;;127.10;57.10;;;;;;;-5.68;76.82;103375.58;106794;1259;60893;-87
2024/01/09 09:13:24;;;;;;;96.30;47.00;;;;;;;-5.51;76.87;103374.94;106710;1257;140232;-87
2024/01/09 09:15:51;;;;;;;98.20;45.20;;;;;;;-5.33;76.89;103372.98;106880;1257;73888;-88
2024/01/09 09:18:17;;;;;;;100.20;48.40;;;;;;;-5.11;76.86;103373.02;106749;1256;64588;-88
2024/01/09 09:20:44;;;;;;;75.90;37.20;;;;;;;-4.93;77.06;103366.89;106714;1260;139110;-88
2024/01/09 09:23:11;;;;;;;54.90;28.20;;;;;;;-4.65;77.03;103367.08;106826;1256;60391;-87
2024/01/09 09:25:37;;;;;;;53.50;27.80;;;;;;;-4.46;76.94;103366.83;106902;1259;137918;-88
2024/01/09 09:28:05;;;;;;;46.30;23.10;;;;;;;-4.27;76.88;103364.02;106897;1255;73632;-87
2024/01/09 09:30:32;;;;;;;47.60;25.00;;;;;;;-4.13;76.67;103363.45;108146;1256;66319;-87
2024/01/09 09:32:59;;;;;;;56.20;29.60;;;;;;;-4.02;76.38;103363.55;108774;1255;137390;-87
2024/01/09 09:35:26;;;;;;;50.90;27.70;;;;;;;-3.91;76.19;103368.06;108760;1254;57902;-88
2024/01/09 09:37:53;;;;;;;47.60;28.00;;;;;;;-3.79;76.10;103366.79;108765;1254;139470;-88
2024/01/09 09:40:22;;;;;;;48.10;27.10;;;;;;;-3.67;75.91;103362.65;108604;1256;72573;-87
2024/01/09 09:42:52;;;;;;;46.80;25.80;;;;;;;-3.60;75.67;103356.45;108487;1255;65032;-88
2024/01/09 09:45:18;;;;;;;47.70;25.40;;;;;;;-3.54;75.58;103354.14;108134;1256;137166;-89
2024/01/09 09:47:46;;;;;;;42.40;23.80;;;;;;;-3.38;75.56;103356.77;107710;1255;60543;-88
2024/01/09 09:50:13;;;;;;;46.20;24.40;;;;;;;-3.17;75.74;103354.84;106648;1254;139306;-87
2024/01/09 09:52:40;;;;;;;46.50;22.70;;;;;;;-2.94;75.71;103348.86;106664;1257;72543;-87
2024/01/09 09:55:10;;;;;;;45.40;23.00;;;;;;;-2.76;75.58;103344.42;106632;1257;138634;-88
2024/01/09 09:57:37;;;;;;;44.00;24.90;;;;;;;-2.60;75.42;103345.79;106603;1256;72569;-88
2024/01/09 10:00:04;;;;;;;43.00;23.70;;;;;;;-2.46;75.30;103344.78;106812;1256;58977;-86
2024/01/09 10:02:44;;;;;;;;;;;;;;;;;;;;;
2024/01/09 10:05:20;;;;;;;47.60;24.50;;;;;;;-2.02;75.37;103335.22;106693;1257;73960;-86
2024/01/09 10:07:52;;;;;;;43.20;23.10;;;;;;;-1.87;75.27;103338.15;106681;1257;138750;-88
2024/01/09 10:10:31;;;;;;;48.50;25.80;;;;;;;-1.72;74.98;103342.80;106593;1256;72733;-87
2024/01/09 10:13:17;;;;;;;50.10;28.20;;;;;;;-1.64;74.63;103333.73;106429;1254;139124;-87
2024/01/09 10:16:03;;;;;;;55.70;27.20;;;;;;;-1.62;74.45;103337.27;106592;1262;61005;-87
2024/01/09 10:19:10;;;;;;;;;;;;;;;;;;;;;
2024/01/09 10:21:52;;;;;;;54.50;28.20;;;;;;;-1.39;74.34;103331.65;106708;1257;65668;-88
2024/01/09 10:24:39;;;;;;;48.30;26.40;;;;;;;-1.24;74.54;103325.21;106612;1261;71698;-88
2024/01/09 10:28:03;;;;;;;41.70;23.70;;;;;;;-1.11;74.31;103322.31;106452;1256;138552;-87
2024/01/09 10:30:47;;;;;;;45.80;23.30;;;;;;;-1.05;73.84;103319.09;106767;1261;60673;-88
2024/01/09 10:33:19;;;;;;;47.20;24.80;;;;;;;-1.05;73.83;103319.56;106420;1264;138208;-88
2024/01/09 10:35:46;;;;;;;50.00;24.30;;;;;;;-1.01;74.01;103319.39;106726;1254;64497;-87
2024/01/09 10:38:13;;;;;;;31.10;17.00;;;;;;;-0.94;74.35;103314.91;106607;1259;137690;-88
2024/01/09 10:40:40;;;;;;;22.60;12.80;;;;;;;-0.83;74.92;103313.96;106816;1256;60380;-88
2024/01/09 10:43:07;;;;;;;25.30;13.90;;;;;;;-0.71;75.29;103318.67;106735;1254;59019;-88
2024/01/09 10:45:33;;;;;;;27.10;15.10;;;;;;;-0.59;75.64;103316.98;106610;1262;138003;-88
2024/01/09 10:48:00;;;;;;;25.70;13.80;;;;;;;-0.44;75.94;103315.30;106749;1261;66245;-87
2024/01/09 10:50:27;;;;;;;24.60;15.50;;;;;;;-0.33;75.86;103311.75;106592;1257;138051;-87
2024/01/09 10:52:54;;;;;;;23.50;14.90;;;;;;;-0.22;75.93;103308.67;106831;1257;60475;-89
2024/01/09 10:55:22;;;;;;;22.00;13.40;;;;;;;-0.15;75.80;103308.20;106786;1255;137828;-88
2024/01/09 10:57:49;;;;;;;26.20;14.10;;;;;;;-0.12;75.84;103307.30;106611;1254;74250;-89
2024/01/09 11:00:16;;;;;;;26.50;14.50;;;;;;;-0.04;76.00;103305.41;106647;1261;64989;-88
2024/01/09 11:02:43;;;;;;;26.40;16.20;;;;;;;0.04;75.91;103302.07;106713;1257;137722;-87
2024/01/09 11:05:10;;;;;;;27.20;15.80;;;;;;;0.09;75.92;103301.98;106622;1254;60607;-88